Time;durP1;ratioP1;P1;durP2;ratioP2;P2;SDS_P1;SDS_P2;PMS_P1;PMS_P2;Temp;Humidity;BMP_temperature;BMP_pressure;BME280_temperature;BME280_humidity;BME280_pressure;Samples;Min_cycle;Max_cycle;Signal;HPM_P1;HPM_P2
2021/01/01 00:00:53;;;;;;;11.17;10.10;;;5.40;49.80;;;;;;5039642;28;20202;-61
2021/01/01 00:03:19;;;;;;;11.67;10.30;;;5.40;50.00;;;;;;5038504;28;20660;-62
2021/01/01 00:05:46;;;;;;;12.03;10.83;;;5.30;49.90;;;;;;5040415;28;20226;-63
2021/01/01 00:08:12;;;;;;;12.30;11.00;;;5.30;50.00;;;;;;5039842;28;20274;-63
2021/01/01 00:10:39;;;;;;;10.90;9.80;;;5.20;50.00;;;;;;5039858;28;20209;-60
2021/01/01 00:13:06;;;;;;;12.40;10.40;;;5.20;50.10;;;;;;5041067;28;20663;-63
2021/01/01 00:15:33;;;;;;;11.40;10.20;;;5.10;50.10;;;;;;5040072;28;20206;-62
2021/01/01 00:17:59;;;;;;;12.73;11.33;;;5.10;50.20;;;;;;5040750;28;20213;-63
2021/01/01 00:20:26;;;;;;;11.97;10.77;;;5.00;50.30;;;;;;5040565;28;20556;-63
2021/01/01 00:22:52;;;;;;;12.03;10.83;;;5.00;50.30;;;;;;5040349;28;20213;-61
2021/01/01 00:25:18;;;;;;;11.80;10.53;;;4.90;50.30;;;;;;5040032;28;20248;-67
2021/01/01 00:27:45;;;;;;;12.53;11.23;;;4.90;50.60;;;;;;5036978;28;20801;-63
2021/01/01 00:30:14;;;;;;;12.43;10.93;;;4.80;50.40;;;;;;5037933;28;20296;-64
2021/01/01 00:32:43;;;;;;;12.00;10.80;;;4.80;50.60;;;;;;5038434;28;20202;-64
2021/01/01 00:35:11;;;;;;;11.90;10.70;;;4.80;50.60;;;;;;5038321;28;21953;-64
2021/01/01 00:37:39;;;;;;;12.20;11.00;;;4.80;50.60;;;;;;5040561;28;20325;-65
2021/01/01 00:40:08;;;;;;;12.33;11.13;;;4.80;50.70;;;;;;5040087;28;20648;-64
2021/01/01 00:42:36;;;;;;;12.17;10.97;;;4.70;50.70;;;;;;5041989;28;20202;-63
2021/01/01 00:45:03;;;;;;;11.40;10.30;;;4.70;50.70;;;;;;5043314;28;20218;-64
2021/01/01 00:47:30;;;;;;;11.63;10.37;;;4.70;51.40;;;;;;5041658;28;20316;-64
2021/01/01 00:49:57;;;;;;;11.13;9.97;;;4.70;50.90;;;;;;5042513;28;20209;-63
2021/01/01 00:52:23;;;;;;;10.83;9.67;;;4.70;50.90;;;;;;5041535;28;20264;-63
2021/01/01 00:54:49;;;;;;;10.50;9.50;;;4.70;50.90;;;;;;5040851;28;20732;-64
2021/01/01 00:57:16;;;;;;;9.30;8.40;;;4.70;50.90;;;;;;5041519;28;20226;-64
2021/01/01 00:59:42;;;;;;;9.83;8.83;;;4.70;51.00;;;;;;5040505;28;20201;-64
2021/01/01 01:02:09;;;;;;;9.97;8.93;;;4.70;50.90;;;;;;5041420;28;20198;-64
2021/01/01 01:04:36;;;;;;;9.50;8.57;;;4.70;50.90;;;;;;5042294;28;20209;-58
2021/01/01 01:07:02;;;;;;;9.73;8.73;;;4.70;50.90;;;;;;5040172;28;20248;-63
2021/01/01 01:09:29;;;;;;;8.90;8.00;;;4.70;50.90;;;;;;5039769;28;20221;-60
2021/01/01 01:11:55;;;;;;;8.37;7.50;;;4.70;50.80;;;;;;5040292;28;20214;-64
2021/01/01 01:14:22;;;;;;;8.97;8.07;;;4.80;50.80;;;;;;5039985;28;20202;-63
2021/01/01 01:16:48;;;;;;;8.67;7.67;;;4.70;50.70;;;;;;5040657;28;20745;-65
2021/01/01 01:19:14;;;;;;;9.00;7.53;;;4.70;50.70;;;;;;5039684;28;20643;-62
2021/01/01 01:21:42;;;;;;;8.37;7.57;;;4.70;50.70;;;;;;5038858;28;20532;-64
2021/01/01 01:24:09;;;;;;;8.77;7.50;;;4.70;50.70;;;;;;5039750;28;20218;-63
2021/01/01 01:26:35;;;;;;;9.77;8.10;;;4.70;50.90;;;;;;5038714;28;20225;-59
2021/01/01 01:29:02;;;;;;;8.53;7.60;;;4.70;50.80;;;;;;5039505;28;20674;-64
2021/01/01 01:31:28;;;;;;;10.63;8.37;;;4.70;50.90;;;;;;5036954;28;20690;-64
2021/01/01 01:33:55;;;;;;;8.10;7.30;;;4.70;50.80;;;;;;5039260;28;20672;-65
2021/01/01 01:36:21;;;;;;;8.57;7.77;;;4.70;50.80;;;;;;5038439;28;20233;-64
2021/01/01 01:38:49;;;;;;;8.87;8.00;;;4.70;50.80;;;;;;5040266;28;20603;-64
2021/01/01 01:41:15;;;;;;;8.93;8.03;;;4.70;50.80;;;;;;5036548;28;20693;-64
2021/01/01 01:43:42;;;;;;;8.43;7.33;;;4.70;50.80;;;;;;5038985;28;20201;-64
2021/01/01 01:46:08;;;;;;;7.93;6.90;;;4.70;50.80;;;;;;5038705;28;20241;-65
2021/01/01 01:51:19;;;;;;;8.70;6.90;;;4.80;50.90;;;;;;5049397;28;20312;-65
2021/01/01 01:53:48;;;;;;;8.10;7.07;;;4.80;50.80;;;;;;5060185;28;20224;-64
2021/01/01 01:56:16;;;;;;;7.77;6.50;;;4.80;50.70;;;;;;5063251;28;20278;-65
2021/01/01 01:58:46;;;;;;;7.23;6.30;;;4.80;50.70;;;;;;5064061;28;20220;-64
2021/01/01 02:01:13;;;;;;;6.37;5.77;;;4.80;50.70;;;;;;5041250;28;20205;-64
2021/01/01 02:03:39;;;;;;;6.67;5.80;;;4.90;50.70;;;;;;5043856;28;20205;-65
2021/01/01 02:06:06;;;;;;;7.20;6.50;;;4.90;50.70;;;;;;5043159;28;20202;-65
2021/01/01 02:08:33;;;;;;;6.30;5.70;;;4.90;50.80;;;;;;5044541;28;20283;-65
2021/01/01 02:11:00;;;;;;;7.43;6.47;;;5.00;50.80;;;;;;5043215;28;20226;-64
2021/01/01 02:13:27;;;;;;;7.10;6.40;;;5.00;50.70;;;;;;5044060;28;20214;-64
2021/01/01 02:15:54;;;;;;;6.77;6.17;;;5.10;50.70;;;;;;5042061;28;20678;-64
2021/01/01 02:18:34;;;;;;;6.43;5.63;;;5.10;50.70;;;;;;5044247;28;20205;-65
2021/01/01 02:21:00;;;;;;;6.93;6.20;;;5.20;50.50;;;;;;5043474;28;20233;-66
2021/01/01 02:23:28;;;;;;;6.27;5.60;;;5.20;50.40;;;;;;5046042;28;20206;-65
2021/01/01 02:25:54;;;;;;;5.67;5.17;;;5.20;50.40;;;;;;5047164;28;20225;-60
2021/01/01 02:28:21;;;;;;;5.80;5.30;;;5.30;50.30;;;;;;5048391;28;20221;-61
2021/01/01 02:30:49;;;;;;;6.03;5.50;;;5.30;50.20;;;;;;5040339;28;20588;-64
2021/01/01 02:33:16;;;;;;;5.90;5.10;;;5.30;51.00;;;;;;5047746;28;20213;-66
2021/01/01 02:35:42;;;;;;;6.27;5.67;;;5.30;50.10;;;;;;5043564;28;20620;-65
2021/01/01 02:38:09;;;;;;;5.73;5.20;;;5.30;50.10;;;;;;5046989;28;20201;-66
2021/01/01 02:40:36;;;;;;;5.80;5.20;;;5.30;50.10;;;;;;5045457;28;20228;-63
2021/01/01 02:43:03;;;;;;;6.20;5.20;;;5.30;50.00;;;;;;5047328;28;20213;-66
2021/01/01 02:45:29;;;;;;;5.93;5.43;;;5.30;50.00;;;;;;5048087;28;20206;-63
2021/01/01 02:47:56;;;;;;;6.00;5.40;;;5.40;50.00;;;;;;5048232;28;20234;-65
2021/01/01 02:50:23;;;;;;;5.90;5.30;;;5.40;50.00;;;;;;5046519;28;20244;-65
2021/01/01 02:52:49;;;;;;;5.77;5.27;;;5.40;50.00;;;;;;5045098;28;20213;-66
2021/01/01 02:55:15;;;;;;;5.70;5.20;;;5.30;49.80;;;;;;5031610;28;20216;-65
2021/01/01 02:57:43;;;;;;;6.37;5.33;;;5.40;49.90;;;;;;5029246;28;20461;-68
2021/01/01 03:00:11;;;;;;;6.77;5.97;;;5.30;50.40;;;;;;5028061;28;20236;-67
2021/01/01 03:02:37;;;;;;;5.53;5.03;;;5.30;49.80;;;;;;5038713;28;20212;-67
2021/01/01 03:05:05;;;;;;;5.40;4.90;;;5.30;49.80;;;;;;5041784;28;20287;-65
2021/01/01 03:07:31;;;;;;;5.03;4.57;;;5.30;49.70;;;;;;5044866;28;20226;-64
2021/01/01 03:09:58;;;;;;;5.13;4.57;;;5.30;49.70;;;;;;5041600;28;20236;-64
2021/01/01 03:12:24;;;;;;;4.53;4.13;;;5.30;49.70;;;;;;5045588;28;20212;-67
2021/01/01 03:14:51;;;;;;;4.87;4.37;;;5.30;49.70;;;;;;5046345;28;20213;-68
2021/01/01 03:17:18;;;;;;;4.53;4.10;;;5.30;49.70;;;;;;5046753;28;20206;-67
2021/01/01 03:19:44;;;;;;;4.57;4.17;;;5.30;49.70;;;;;;5045911;28;20224;-66
2021/01/01 03:22:10;;;;;;;4.57;4.13;;;5.30;49.70;;;;;;5046492;28;20224;-66
2021/01/01 03:24:37;;;;;;;4.43;4.00;;;5.30;49.70;;;;;;5044819;28;20591;-67
2021/01/01 03:27:03;;;;;;;4.07;3.67;;;5.30;49.70;;;;;;5045093;28;20241;-65
2021/01/01 03:29:30;;;;;;;4.40;4.00;;;5.30;49.70;;;;;;5044120;28;20229;-65
2021/01/01 03:31:57;;;;;;;5.20;3.70;;;5.40;49.80;;;;;;5042016;28;20295;-63
2021/01/01 03:34:23;;;;;;;4.97;3.93;;;5.40;49.80;;;;;;5043498;28;20651;-63
2021/01/01 03:36:50;;;;;;;5.73;5.13;;;5.40;49.70;;;;;;5041175;28;20206;-63
2021/01/01 03:39:17;;;;;;;4.97;4.47;;;5.50;49.80;;;;;;5043716;28;20613;-62
2021/01/01 03:41:43;;;;;;;5.40;3.90;;;5.50;49.70;;;;;;5046513;28;20218;-63
2021/01/01 03:44:09;;;;;;;3.83;3.43;;;5.60;49.70;;;;;;5043124;28;20684;-66
2021/01/01 03:46:36;;;;;;;3.80;3.43;;;5.60;49.70;;;;;;5043756;28;20210;-66
2021/01/01 03:49:03;;;;;;;4.13;3.53;;;5.60;49.60;;;;;;5042083;28;20471;-66
2021/01/01 03:51:29;;;;;;;4.00;3.60;;;5.70;49.60;;;;;;5044541;28;20209;-65
2021/01/01 03:53:56;;;;;;;3.67;3.37;;;5.70;49.50;;;;;;5044189;28;20244;-65
2021/01/01 03:56:22;;;;;;;3.97;3.57;;;5.70;49.30;;;;;;5045316;28;20268;-65
2021/01/01 03:58:49;;;;;;;5.20;3.77;;;5.80;49.30;;;;;;5044043;28;20198;-65
2021/01/01 04:01:15;;;;;;;3.73;3.43;;;5.70;49.20;;;;;;5042297;28;20198;-67
2021/01/01 04:03:42;;;;;;;5.23;4.00;;;5.70;49.10;;;;;;5044785;28;20340;-63
2021/01/01 04:06:09;;;;;;;4.27;3.87;;;5.70;49.00;;;;;;5044414;28;20217;-63
2021/01/01 04:08:36;;;;;;;3.50;3.20;;;5.70;49.00;;;;;;5045577;28;20225;-64
2021/01/01 04:11:03;;;;;;;3.60;3.30;;;5.70;49.00;;;;;;5042073;28;20233;-64
2021/01/01 04:13:29;;;;;;;3.83;3.53;;;5.70;49.00;;;;;;5044249;28;20742;-64
2021/01/01 04:15:56;;;;;;;4.27;3.67;;;5.60;48.90;;;;;;5046945;28;20293;-63
2021/01/01 04:18:23;;;;;;;3.97;3.57;;;5.60;49.00;;;;;;5045525;28;20214;-64
2021/01/01 04:20:50;;;;;;;5.20;4.33;;;5.50;49.00;;;;;;5044328;28;20887;-63
2021/01/01 04:23:17;;;;;;;4.80;4.30;;;5.50;49.00;;;;;;5041674;28;20198;-63
2021/01/01 04:25:46;;;;;;;4.83;4.43;;;5.50;49.20;;;;;;5045567;28;20363;-64
2021/01/01 04:28:13;;;;;;;5.30;4.80;;;5.40;49.20;;;;;;5044095;28;20236;-64
2021/01/01 04:30:39;;;;;;;5.33;4.83;;;5.40;49.30;;;;;;5044839;28;20230;-63
2021/01/01 04:33:06;;;;;;;4.23;3.77;;;5.40;49.50;;;;;;5043078;28;20633;-64
2021/01/01 04:35:32;;;;;;;5.93;5.17;;;5.30;49.50;;;;;;5040549;28;20209;-64
2021/01/01 04:37:58;;;;;;;6.40;5.77;;;5.30;49.50;;;;;;5043229;28;20736;-63
2021/01/01 04:40:27;;;;;;;6.07;5.37;;;5.30;49.60;;;;;;5044195;28;20221;-62
2021/01/01 04:42:53;;;;;;;5.90;5.30;;;5.20;49.60;;;;;;5043242;28;20221;-64
2021/01/01 04:45:19;;;;;;;6.57;5.53;;;5.20;49.60;;;;;;5044196;28;20267;-64
2021/01/01 04:47:46;;;;;;;6.73;6.13;;;5.10;49.60;;;;;;5043308;28;20236;-63
2021/01/01 04:50:15;;;;;;;6.20;5.60;;;5.10;49.70;;;;;;5043512;28;20229;-61
2021/01/01 04:52:48;;;;;;;6.10;5.50;;;5.00;49.80;;;;;;5046758;28;20254;-62
2021/01/01 04:55:16;;;;;;;6.13;5.40;;;5.00;49.90;;;;;;5044969;28;20206;-59
2021/01/01 04:57:43;;;;;;;6.10;5.60;;;5.00;50.00;;;;;;5042413;28;20202;-61
2021/01/01 05:00:11;;;;;;;6.13;5.53;;;5.00;50.10;;;;;;5041480;28;20218;-59
2021/01/01 05:02:38;;;;;;;6.30;5.70;;;5.00;50.20;;;;;;5045716;28;20202;-60
2021/01/01 05:05:06;;;;;;;6.63;6.03;;;5.00;50.30;;;;;;5044774;28;20217;-59
2021/01/01 05:07:32;;;;;;;6.67;5.97;;;5.00;50.30;;;;;;5044361;28;20252;-58
2021/01/01 05:09:59;;;;;;;7.03;6.23;;;5.00;50.30;;;;;;5043429;28;20225;-59
2021/01/01 05:12:31;;;;;;;8.20;6.30;;;5.00;50.40;;;;;;5046165;28;20206;-59
2021/01/01 05:14:59;;;;;;;6.83;6.23;;;5.00;50.50;;;;;;5045462;28;20205;-59
2021/01/01 05:17:36;;;;;;;6.40;5.80;;;5.00;50.40;;;;;;5045158;28;20609;-58
2021/01/01 05:20:10;;;;;;;5.97;5.37;;;5.10;50.60;;;;;;5046302;28;20769;-59
2021/01/01 05:22:37;;;;;;;6.23;5.63;;;5.10;50.50;;;;;;5042214;28;20205;-60
2021/01/01 05:25:16;;;;;;;6.33;5.73;;;5.10;50.40;;;;;;5043139;28;20218;-60
2021/01/01 05:27:48;;;;;;;6.70;6.00;;;5.10;50.40;;;;;;5042605;28;20310;-59
2021/01/01 05:30:16;;;;;;;7.00;6.20;;;5.10;50.40;;;;;;5042025;28;20225;-59
2021/01/01 05:32:52;;;;;;;7.43;6.40;;;5.10;50.30;;;;;;5042488;28;20525;-60
2021/01/01 05:35:27;;;;;;;7.10;6.10;;;5.10;50.30;;;;;;5043415;28;20210;-60
2021/01/01 05:37:54;;;;;;;6.97;6.27;;;5.10;50.30;;;;;;5043615;28;20221;-59
2021/01/01 05:40:30;;;;;;;6.70;6.03;;;5.00;50.20;;;;;;5042651;28;20229;-59
2021/01/01 05:42:57;;;;;;;6.73;6.13;;;5.00;50.30;;;;;;5043040;28;20240;-60
2021/01/01 05:45:29;;;;;;;6.67;5.97;;;5.00;50.30;;;;;;5042958;28;20213;-61
2021/01/01 05:48:06;;;;;;;7.00;6.30;;;4.90;50.40;;;;;;5042514;28;20225;-59
2021/01/01 05:50:35;;;;;;;6.70;5.90;;;4.90;50.50;;;;;;5042427;28;20241;-59
2021/01/01 05:53:16;;;;;;;6.97;6.20;;;4.90;50.40;;;;;;5043265;28;20287;-59
2021/01/01 05:55:45;;;;;;;6.53;5.93;;;4.80;50.50;;;;;;5045058;28;20216;-59
2021/01/01 05:58:23;;;;;;;7.40;6.17;;;4.80;50.40;;;;;;5043591;28;20579;-59
2021/01/01 06:00:54;;;;;;;7.57;6.80;;;4.70;50.40;;;;;;5044870;28;20225;-60
2021/01/01 06:03:23;;;;;;;7.33;6.63;;;4.70;50.30;;;;;;5044047;28;23235;-60
2021/01/01 06:05:54;;;;;;;7.33;6.13;;;4.60;50.30;;;;;;5046804;28;20205;-60
2021/01/01 06:08:25;;;;;;;6.97;6.27;;;4.50;50.40;;;;;;5048875;28;20252;-58
2021/01/01 06:10:54;;;;;;;7.43;6.67;;;4.50;50.40;;;;;;5045561;28;20234;-60
2021/01/01 06:13:22;;;;;;;7.37;6.50;;;4.40;50.50;;;;;;5046117;28;20681;-60
2021/01/01 06:15:57;;;;;;;7.33;6.43;;;4.40;50.60;;;;;;5045825;28;20214;-61
2021/01/01 06:18:30;;;;;;;8.13;7.33;;;4.30;50.80;;;;;;5047274;28;20209;-60
2021/01/01 06:21:01;;;;;;;7.97;7.13;;;4.30;50.90;;;;;;5045271;28;20225;-60
2021/01/01 06:23:35;;;;;;;8.13;7.10;;;4.30;51.00;;;;;;5046710;28;20206;-61
2021/01/01 06:26:04;;;;;;;8.40;7.53;;;4.30;51.10;;;;;;5045668;28;20209;-57
2021/01/01 06:28:33;;;;;;;9.73;8.73;;;4.20;51.00;;;;;;5047927;28;20229;-58
2021/01/01 06:31:01;;;;;;;9.90;8.90;;;4.20;51.00;;;;;;5046135;28;21019;-60
2021/01/01 06:33:28;;;;;;;9.93;8.37;;;4.20;51.20;;;;;;5047590;28;20209;-59
2021/01/01 06:35:55;;;;;;;9.87;8.60;;;4.20;51.20;;;;;;5047589;28;20698;-60
2021/01/01 06:38:39;;;;;;;9.07;7.83;;;4.10;51.20;;;;;;5043588;28;20206;-58
2021/01/01 06:41:12;;;;;;;8.87;7.97;;;4.10;51.50;;;;;;5043735;28;20225;-60
2021/01/01 06:43:56;;;;;;;9.53;8.53;;;4.00;51.30;;;;;;5046221;28;20221;-59
2021/01/01 06:46:35;;;;;;;9.30;8.33;;;4.00;51.60;;;;;;5044707;28;20214;-58
2021/01/01 06:49:04;;;;;;;9.27;8.27;;;4.00;51.60;;;;;;5047051;28;20233;-59
2021/01/01 06:51:32;;;;;;;9.67;8.37;;;3.90;51.40;;;;;;5046840;28;20201;-60
2021/01/01 06:54:11;;;;;;;9.67;8.13;;;3.90;51.50;;;;;;5047600;28;20221;-60
2021/01/01 06:56:42;;;;;;;8.57;7.43;;;3.90;51.80;;;;;;5043133;28;20237;-59
2021/01/01 06:59:10;;;;;;;7.63;6.77;;;3.90;51.80;;;;;;5044854;28;20252;-61
2021/01/01 07:01:42;;;;;;;8.33;7.27;;;3.90;51.80;;;;;;5042926;28;20753;-60
2021/01/01 07:04:09;;;;;;;8.63;7.40;;;3.80;52.00;;;;;;5044601;28;20247;-59
2021/01/01 07:06:43;;;;;;;8.60;7.57;;;3.80;52.00;;;;;;5048291;28;20228;-60
2021/01/01 07:09:13;;;;;;;7.87;6.83;;;3.90;52.10;;;;;;5045610;28;20244;-60
2021/01/01 07:11:42;;;;;;;8.90;7.83;;;3.80;52.10;;;;;;5046185;28;20205;-61
2021/01/01 07:14:11;;;;;;;7.30;6.60;;;3.90;52.20;;;;;;5045212;28;20210;-59
2021/01/01 07:16:45;;;;;;;8.07;7.27;;;3.90;52.20;;;;;;5046055;28;20725;-60
2021/01/01 07:19:15;;;;;;;8.33;7.53;;;3.90;52.20;;;;;;5042804;28;20225;-60
2021/01/01 07:21:41;;;;;;;8.50;7.13;;;3.90;52.10;;;;;;5046573;28;20198;-60
2021/01/01 07:24:09;;;;;;;7.93;6.70;;;3.80;52.00;;;;;;5043659;28;20202;-62
2021/01/01 07:26:35;;;;;;;7.93;7.13;;;3.80;52.20;;;;;;5044461;28;20216;-61
2021/01/01 07:29:04;;;;;;;8.33;7.43;;;3.90;52.40;;;;;;5041785;28;20225;-61
2021/01/01 07:31:30;;;;;;;8.67;7.67;;;3.90;52.30;;;;;;5044199;28;20206;-60
2021/01/01 07:34:07;;;;;;;8.60;7.80;;;3.90;52.40;;;;;;5045321;28;20206;-62
2021/01/01 07:36:35;;;;;;;8.27;7.30;;;3.90;52.40;;;;;;5045506;28;20209;-62
2021/01/01 07:39:06;;;;;;;8.30;7.50;;;3.90;52.50;;;;;;5044765;28;20259;-61
2021/01/01 07:41:33;;;;;;;8.67;7.80;;;3.90;52.50;;;;;;5046591;28;20278;-60
2021/01/01 07:44:00;;;;;;;8.07;7.33;;;4.00;52.60;;;;;;5044241;28;20558;-58
2021/01/01 07:46:31;;;;;;;8.33;7.50;;;4.00;52.60;;;;;;5043593;28;20209;-61
2021/01/01 07:48:59;;;;;;;8.53;7.73;;;4.10;52.60;;;;;;5046359;28;20233;-60
2021/01/01 07:51:25;;;;;;;8.80;7.93;;;4.10;52.60;;;;;;5045803;28;20289;-59
2021/01/01 07:54:03;;;;;;;8.70;7.80;;;4.20;52.70;;;;;;5076587;22;20235;-65
2021/01/01 07:56:30;;;;;;;9.00;7.97;;;4.20;52.80;;;;;;5074452;28;20213;-64
2021/01/01 07:58:56;;;;;;;8.37;7.57;;;4.30;52.70;;;;;;5078267;28;20204;-64
2021/01/01 08:01:23;;;;;;;8.30;7.47;;;4.30;52.70;;;;;;5074658;28;20204;-63
2021/01/01 08:03:50;;;;;;;8.60;7.70;;;4.40;52.80;;;;;;5075023;28;20219;-65
2021/01/01 08:06:19;;;;;;;9.00;7.93;;;4.50;52.80;;;;;;5078036;28;20293;-63
2021/01/01 08:08:46;;;;;;;8.97;8.17;;;4.60;52.90;;;;;;5077253;28;20750;-62
2021/01/01 08:11:13;;;;;;;8.73;7.93;;;4.70;52.80;;;;;;5076979;28;20204;-65
2021/01/01 08:13:39;;;;;;;9.03;8.17;;;4.70;53.40;;;;;;5075736;28;20254;-63
2021/01/01 08:16:14;;;;;;;9.33;8.47;;;4.90;52.80;;;;;;5078377;28;20219;-62
2021/01/01 08:18:41;;;;;;;8.50;7.60;;;4.90;52.80;;;;;;5077861;28;20212;-65
2021/01/01 08:21:09;;;;;;;8.40;7.60;;;5.00;52.70;;;;;;5077267;28;20207;-64
2021/01/01 08:23:56;;;;;;;8.70;7.90;;;5.20;52.70;;;;;;5081102;28;20236;-63
2021/01/01 08:26:23;;;;;;;7.87;7.17;;;5.30;52.80;;;;;;5081588;28;20208;-63
2021/01/01 08:28:52;;;;;;;8.50;7.70;;;5.40;52.60;;;;;;5078778;28;20236;-65
2021/01/01 08:31:20;;;;;;;9.27;7.93;;;5.50;52.50;;;;;;5079026;28;20211;-65
2021/01/01 08:33:52;;;;;;;9.03;8.13;;;5.60;52.40;;;;;;5078256;28;20722;-62
2021/01/01 08:36:18;;;;;;;8.67;7.87;;;5.70;52.30;;;;;;5080109;28;20213;-66
2021/01/01 08:38:47;;;;;;;8.50;7.70;;;5.80;52.20;;;;;;5075550;28;20274;-64
2021/01/01 08:41:17;;;;;;;7.87;7.17;;;5.90;52.10;;;;;;5077441;28;20751;-66
2021/01/01 08:43:45;;;;;;;7.53;6.80;;;6.00;52.00;;;;;;5078018;28;20662;-67
2021/01/01 08:46:15;;;;;;;8.23;7.43;;;6.10;51.90;;;;;;5075793;28;20205;-64
2021/01/01 08:48:41;;;;;;;7.50;6.80;;;6.20;51.70;;;;;;5076732;28;20231;-64
2021/01/01 08:51:08;;;;;;;7.60;6.90;;;6.20;51.60;;;;;;5078276;28;20211;-61
2021/01/01 08:53:39;;;;;;;7.30;6.60;;;6.30;51.70;;;;;;5076669;28;20244;-64
2021/01/01 08:56:08;;;;;;;7.07;6.23;;;6.40;51.30;;;;;;5077000;28;20247;-64
2021/01/01 08:58:35;;;;;;;6.73;6.10;;;6.50;51.30;;;;;;5074273;28;20258;-63
2021/01/01 09:01:15;;;;;;;6.83;6.23;;;6.60;51.20;;;;;;5075257;28;20211;-66
2021/01/01 09:03:43;;;;;;;6.83;6.13;;;6.60;50.90;;;;;;5076756;28;20225;-66
2021/01/01 09:06:17;;;;;;;6.93;6.23;;;6.70;50.90;;;;;;5073517;28;20204;-67
2021/01/01 09:08:43;;;;;;;6.27;5.67;;;6.80;50.80;;;;;;5076229;28;20236;-65
2021/01/01 09:11:21;;;;;;;6.60;6.00;;;6.80;50.80;;;;;;5075617;28;20204;-64
2021/01/01 09:14:00;;;;;;;6.87;6.27;;;6.90;50.60;;;;;;5077433;28;20796;-65
2021/01/01 09:16:27;;;;;;;7.23;6.53;;;7.00;50.70;;;;;;5076122;28;20204;-65
2021/01/01 09:18:53;;;;;;;7.67;6.97;;;7.10;50.70;;;;;;5077955;28;20254;-65
2021/01/01 09:21:20;;;;;;;8.03;7.30;;;7.20;50.80;;;;;;5077141;28;20755;-67
2021/01/01 09:23:55;;;;;;;8.03;7.27;;;7.30;51.00;;;;;;5075647;28;20315;-65
2021/01/01 09:26:27;;;;;;;7.43;6.83;;;7.40;51.00;;;;;;5074401;28;20212;-63
2021/01/01 09:29:02;;;;;;;7.57;6.87;;;7.70;51.20;;;;;;5076119;28;20364;-67
2021/01/01 09:31:29;;;;;;;7.90;7.13;;;8.00;51.10;;;;;;5074312;28;20212;-66
2021/01/01 09:34:02;;;;;;;8.33;7.53;;;8.30;51.40;;;;;;5076404;28;20236;-62
2021/01/01 09:36:32;;;;;;;7.77;7.07;;;8.70;51.30;;;;;;5082081;28;20209;-65
2021/01/01 09:38:59;;;;;;;7.63;6.93;;;9.00;51.20;;;;;;5082193;28;20200;-65
2021/01/01 09:41:27;;;;;;;7.97;7.27;;;9.50;51.20;;;;;;5078262;28;20205;-63
2021/01/01 09:43:53;;;;;;;8.13;7.33;;;10.10;51.60;;;;;;5078041;28;20232;-64
2021/01/01 09:46:19;;;;;;;7.37;6.77;;;10.70;51.60;;;;;;5080256;28;20525;-66
2021/01/01 09:48:46;;;;;;;7.10;6.47;;;11.40;51.00;;;;;;5079214;28;20312;-64
2021/01/01 09:51:14;;;;;;;7.13;6.53;;;12.00;50.00;;;;;;5077389;28;20205;-64
2021/01/01 09:53:41;;;;;;;7.17;6.50;;;12.50;48.70;;;;;;5077318;28;20247;-64
2021/01/01 09:56:07;;;;;;;7.00;6.37;;;12.90;47.90;;;;;;5079210;28;20684;-67
2021/01/01 09:58:35;;;;;;;6.97;6.37;;;13.10;46.90;;;;;;5079202;28;20220;-64
2021/01/01 10:01:01;;;;;;;6.90;6.23;;;13.20;46.20;;;;;;5077617;28;20204;-65
2021/01/01 10:03:28;;;;;;;6.17;5.67;;;13.20;45.80;;;;;;5078411;28;20737;-65
2021/01/01 10:05:54;;;;;;;6.10;5.60;;;13.20;45.60;;;;;;5079798;28;20208;-64
2021/01/01 10:08:21;;;;;;;6.20;5.60;;;13.10;45.60;;;;;;5081348;28;20786;-66
2021/01/01 10:10:48;;;;;;;6.13;5.57;;;13.10;45.60;;;;;;5077725;28;20204;-65
2021/01/01 10:13:15;;;;;;;5.87;5.37;;;13.00;45.50;;;;;;5081078;28;20310;-65
2021/01/01 10:15:42;;;;;;;5.40;5.00;;;13.00;45.30;;;;;;5080069;28;20213;-66
2021/01/01 10:18:09;;;;;;;5.77;5.37;;;13.00;45.20;;;;;;5078718;28;20200;-64
2021/01/01 10:20:35;;;;;;;5.50;5.00;;;12.90;45.30;;;;;;5081799;28;20216;-65
2021/01/01 10:23:02;;;;;;;5.63;5.13;;;12.90;45.20;;;;;;5079390;28;20224;-66
2021/01/01 10:25:28;;;;;;;5.17;4.67;;;12.90;45.30;;;;;;5081353;28;20693;-65
2021/01/01 10:27:55;;;;;;;4.93;4.53;;;12.90;45.30;;;;;;5079338;28;20225;-64
2021/01/01 10:30:22;;;;;;;5.30;4.73;;;13.00;45.30;;;;;;5082820;28;20282;-67
2021/01/01 10:32:49;;;;;;;5.10;4.70;;;13.00;45.30;;;;;;5081696;28;20285;-66
2021/01/01 10:35:16;;;;;;;4.80;4.40;;;13.20;45.30;;;;;;5082697;28;20201;-65
2021/01/01 10:37:42;;;;;;;4.27;3.93;;;13.30;45.30;;;;;;5083664;28;20204;-65
2021/01/01 10:40:09;;;;;;;4.67;4.27;;;13.40;45.10;;;;;;5081824;28;20251;-66
2021/01/01 10:42:36;;;;;;;4.77;4.37;;;13.50;44.90;;;;;;5082623;28;20220;-65
2021/01/01 10:45:03;;;;;;;4.63;4.23;;;13.50;44.70;;;;;;5077147;28;20208;-65
2021/01/01 10:47:30;;;;;;;4.83;4.43;;;13.60;44.80;;;;;;5079727;28;20260;-63
2021/01/01 10:50:00;;;;;;;5.43;4.93;;;13.70;44.80;;;;;;5080160;28;20213;-65
2021/01/01 10:52:26;;;;;;;5.50;5.10;;;13.80;44.50;;;;;;5080339;28;20212;-66
2021/01/01 10:54:53;;;;;;;5.10;4.70;;;13.80;44.70;;;;;;5079803;28;20240;-63
2021/01/01 10:57:21;;;;;;;5.23;4.73;;;13.90;44.50;;;;;;5079832;28;20295;-66
2021/01/01 10:59:52;;;;;;;5.03;4.60;;;14.00;44.30;;;;;;5081850;28;20682;-64
2021/01/01 11:02:19;;;;;;;4.60;4.20;;;14.00;44.00;;;;;;5080328;28;20261;-65
2021/01/01 11:04:46;;;;;;;4.97;4.43;;;14.10;44.00;;;;;;5076733;28;20207;-66
2021/01/01 11:07:13;;;;;;;5.07;4.57;;;14.10;44.00;;;;;;5077794;28;20506;-66
2021/01/01 11:09:39;;;;;;;5.00;4.60;;;14.10;44.00;;;;;;5078079;28;20697;-65
2021/01/01 11:12:09;;;;;;;5.10;4.53;;;14.10;44.10;;;;;;5077928;28;20701;-65
2021/01/01 11:14:55;;;;;;;4.40;4.03;;;14.20;44.00;;;;;;5075130;28;20220;-64
2021/01/01 12:24:19;;;;;;;3.43;3.13;;;13.70;43.80;;;;;;5059418;28;20338;-66
2021/01/01 12:26:46;;;;;;;3.87;3.57;;;13.50;44.00;;;;;;5077391;28;20209;-65
2021/01/01 12:29:14;;;;;;;3.83;3.53;;;13.30;44.10;;;;;;5075032;28;20229;-66
2021/01/01 12:31:41;;;;;;;3.80;3.50;;;13.10;44.40;;;;;;5074696;28;20617;-66
2021/01/01 12:34:08;;;;;;;3.90;3.60;;;12.90;44.60;;;;;;5074879;28;20239;-64
2021/01/01 12:36:35;;;;;;;3.70;3.40;;;12.80;44.90;;;;;;5082879;28;20573;-65
2021/01/01 12:39:01;;;;;;;3.57;3.27;;;12.70;45.10;;;;;;5086913;28;20719;-65
2021/01/01 12:41:28;;;;;;;3.57;3.27;;;12.60;46.10;;;;;;5082185;28;20232;-64
2021/01/01 12:43:54;;;;;;;3.67;3.37;;;12.50;45.70;;;;;;5083321;28;20236;-65
2021/01/01 12:46:22;;;;;;;4.33;3.93;;;12.60;46.00;;;;;;5085086;28;20213;-65
2021/01/01 12:48:48;;;;;;;4.17;3.77;;;12.60;45.90;;;;;;5095258;28;20248;-66
2021/01/01 12:51:14;;;;;;;4.87;4.40;;;12.60;45.70;;;;;;5084916;28;20213;-66
2021/01/01 12:53:41;;;;;;;4.70;4.33;;;12.50;45.50;;;;;;5085298;28;20236;-65
2021/01/01 12:56:08;;;;;;;5.00;4.60;;;12.40;45.40;;;;;;5079926;28;20200;-63
2021/01/01 12:58:34;;;;;;;4.77;4.27;;;12.30;45.30;;;;;;5075463;28;20288;-65
2021/01/01 13:01:01;;;;;;;4.83;4.43;;;12.20;45.40;;;;;;5073292;28;20234;-64
2021/01/01 13:03:28;;;;;;;4.73;4.33;;;12.00;45.50;;;;;;5076240;28;20232;-64
2021/01/01 13:05:55;;;;;;;4.13;3.83;;;11.80;45.70;;;;;;5075858;28;20231;-63
2021/01/01 13:08:21;;;;;;;5.60;5.10;;;11.70;45.90;;;;;;5070153;28;20228;-64
2021/01/01 13:10:48;;;;;;;5.90;5.40;;;11.50;46.20;;;;;;5072329;28;20352;-63
2021/01/01 13:13:14;;;;;;;5.40;4.90;;;11.50;46.30;;;;;;5074280;28;20239;-63
2021/01/01 13:15:40;;;;;;;6.17;5.67;;;11.30;46.50;;;;;;5076675;28;20265;-63
2021/01/01 13:18:07;;;;;;;5.73;5.33;;;11.20;46.70;;;;;;5074296;28;20196;-63
2021/01/01 13:20:34;;;;;;;6.03;5.53;;;11.10;46.70;;;;;;5074817;28;20740;-63
2021/01/01 13:23:01;;;;;;;6.33;5.73;;;11.10;46.90;;;;;;5072677;28;20232;-64
2021/01/01 13:25:27;;;;;;;6.30;5.80;;;10.90;46.90;;;;;;5076934;28;20200;-65
2021/01/01 13:27:54;;;;;;;6.70;6.10;;;10.80;47.10;;;;;;5073474;28;20264;-64
2021/01/01 13:30:21;;;;;;;6.63;6.03;;;10.70;47.20;;;;;;5076546;28;20244;-65
2021/01/01 13:32:48;;;;;;;6.70;6.10;;;10.60;47.40;;;;;;5074871;28;20228;-63
2021/01/01 13:35:14;;;;;;;6.97;6.37;;;10.50;47.60;;;;;;5073464;28;20216;-62
2021/01/01 13:37:41;;;;;;;7.53;6.83;;;10.40;47.80;;;;;;5077851;28;20706;-64
2021/01/01 13:40:10;;;;;;;6.73;6.13;;;10.30;48.00;;;;;;5073416;28;20216;-64
2021/01/01 13:42:36;;;;;;;7.20;6.60;;;10.20;48.20;;;;;;5073439;28;20247;-63
2021/01/01 13:45:04;;;;;;;6.77;6.17;;;10.20;48.50;;;;;;5073184;28;20242;-63
2021/01/01 13:47:31;;;;;;;6.67;6.07;;;10.10;48.60;;;;;;5077481;28;20245;-62
2021/01/01 13:49:57;;;;;;;7.13;6.53;;;10.10;48.70;;;;;;5075769;28;20216;-63
2021/01/01 13:52:24;;;;;;;7.03;6.43;;;10.10;49.00;;;;;;5071394;28;20212;-65
2021/01/01 13:54:53;;;;;;;6.87;6.27;;;10.10;49.10;;;;;;5087703;22;20320;-63
2021/01/01 13:57:20;;;;;;;5.97;5.47;;;10.10;49.40;;;;;;5059361;28;20614;-63
2021/01/01 13:59:46;;;;;;;7.20;6.60;;;10.10;49.30;;;;;;5062965;28;20227;-64
2021/01/01 14:02:12;;;;;;;7.07;5.77;;;10.20;49.40;;;;;;5065244;28;20205;-63
2021/01/01 14:04:39;;;;;;;6.30;5.80;;;10.20;49.30;;;;;;5062813;28;20236;-67
2021/01/01 14:07:05;;;;;;;6.40;5.90;;;10.30;49.40;;;;;;5065567;28;20243;-63